createdAt,value
2022-08-09T00:01:19.765Z,1.85
2022-08-09T00:04:10.699Z,1.95
2022-08-09T00:06:37.140Z,2.30
2022-08-09T00:09:05.652Z,2.00
2022-08-09T00:12:04.010Z,2.30
2022-08-09T00:14:21.975Z,2.00
2022-08-09T00:16:58.510Z,2.00
2022-08-09T00:19:27.653Z,2.03
2022-08-09T00:21:57.035Z,1.85
2022-08-09T00:24:27.131Z,1.73
2022-08-09T00:26:57.467Z,1.80
2022-08-09T00:30:10.220Z,1.98
2022-08-09T00:32:26.556Z,2.22
2022-08-09T00:34:55.583Z,2.17
2022-08-09T00:37:23.908Z,2.00
2022-08-09T00:40:12.258Z,2.08
2022-08-09T00:44:13.996Z,2.25
2022-08-09T00:45:29.178Z,1.90
2022-08-09T00:47:57.075Z,1.80
2022-08-09T00:50:26.048Z,1.90
2022-08-09T00:52:55.236Z,1.88
2022-08-09T00:56:03.991Z,2.20
2022-08-09T00:58:14.686Z,1.95
2022-08-09T01:00:53.269Z,1.70
2022-08-09T01:03:40.908Z,2.25
2022-08-09T01:06:21.910Z,1.90
2022-08-09T01:09:11.170Z,2.00
2022-08-09T01:11:53.356Z,1.90
2022-08-09T01:14:37.816Z,1.95
2022-08-09T01:17:12.068Z,2.15
2022-08-09T01:20:02.998Z,1.70
2022-08-09T01:22:54.659Z,1.70
2022-08-09T01:25:41.498Z,2.00
2022-08-09T01:28:11.470Z,2.17
2022-08-09T01:30:51.673Z,1.92
2022-08-09T01:33:24.546Z,1.88
2022-08-09T01:36:00.071Z,2.00
2022-08-09T01:38:30.275Z,1.65
2022-08-09T01:41:56.131Z,1.67
2022-08-09T01:44:30.646Z,2.08
2022-08-09T01:47:01.330Z,1.90
2022-08-09T01:49:31.914Z,2.53
2022-08-09T01:52:09.918Z,1.90
2022-08-09T01:54:40.482Z,2.22
2022-08-09T01:57:21.699Z,2.45
2022-08-09T01:59:52.718Z,4.32
2022-08-09T02:02:31.622Z,3.63
2022-08-09T02:05:15.295Z,2.45
2022-08-09T02:08:40.560Z,2.25
2022-08-09T02:10:56.830Z,1.80
2022-08-09T02:13:37.587Z,1.95
2022-08-09T02:16:10.538Z,1.73
2022-08-09T02:18:43.061Z,1.50
2022-08-09T02:21:22.245Z,2.10
2022-08-09T02:23:58.171Z,2.08
2022-08-09T02:26:31.299Z,1.50
2022-08-09T02:29:04.324Z,2.00
2022-08-09T02:31:36.359Z,2.35
2022-08-09T02:34:40.272Z,2.05
2022-08-09T02:37:12.007Z,1.85
2022-08-09T02:39:44.539Z,1.80
2022-08-09T02:42:24.912Z,1.67
2022-08-09T02:45:13.746Z,1.50
2022-08-09T02:47:46.393Z,1.90
2022-08-09T02:51:02.505Z,1.70
2022-08-09T02:53:39.705Z,1.70
2022-08-09T02:56:12.079Z,1.85
2022-08-09T02:58:42.828Z,1.52
2022-08-09T03:01:21.660Z,2.15
2022-08-09T03:04:17.230Z,1.60
2022-08-09T03:06:45.921Z,1.80
2022-08-09T03:09:17.669Z,2.00
2022-08-09T03:12:10.460Z,1.80
2022-08-09T03:14:34.555Z,1.92
2022-08-09T03:17:05.624Z,1.92
2022-08-09T03:19:58.336Z,2.05
2022-08-09T03:22:24.918Z,2.03
2022-08-09T03:25:06.140Z,2.00
2022-08-09T03:27:51.261Z,2.08
2022-08-09T03:30:30.083Z,2.05
2022-08-09T03:33:16.995Z,2.03
2022-08-09T03:36:13.061Z,2.15
2022-08-09T03:38:42.530Z,2.00
2022-08-09T03:41:16.384Z,1.83
2022-08-09T03:44:02.837Z,2.15
2022-08-09T03:46:35.616Z,2.00
2022-08-09T03:49:07.845Z,2.05
2022-08-09T03:51:55.223Z,2.13
2022-08-09T03:54:32.023Z,1.70
2022-08-09T03:57:04.099Z,1.98
2022-08-09T03:59:53.733Z,2.03
2022-08-09T04:02:27.579Z,1.65
2022-08-09T04:05:26.605Z,2.00
2022-08-09T04:07:57.265Z,1.90
2022-08-09T04:10:28.907Z,2.03
2022-08-09T04:13:01.231Z,1.85
2022-08-09T04:15:52.545Z,1.73
2022-08-09T04:18:21.477Z,2.53
2022-08-09T04:20:51.249Z,1.85
2022-08-09T04:23:24.494Z,2.00
2022-08-09T04:25:54.455Z,1.73
2022-08-09T04:28:34.190Z,1.90
2022-08-09T04:31:08.649Z,1.80
2022-08-09T04:33:47.453Z,1.90
2022-08-09T04:36:23.515Z,2.15
2022-08-09T04:38:53.033Z,2.05
2022-08-09T04:41:24.018Z,2.20
2022-08-09T04:44:05.308Z,2.40
2022-08-09T04:46:37.872Z,2.05
2022-08-09T04:49:40.840Z,2.00
2022-08-09T04:52:18.687Z,2.35
2022-08-09T04:54:53.389Z,1.83
2022-08-09T04:57:23.939Z,2.00
2022-08-09T04:59:56.168Z,2.22
2022-08-09T05:02:27.225Z,1.95
2022-08-09T05:04:56.183Z,1.95
2022-08-09T05:07:25.279Z,1.67
2022-08-09T05:09:58.000Z,1.88
2022-08-09T05:12:31.051Z,1.70
2022-08-09T05:14:59.088Z,1.50
2022-08-09T05:18:39.244Z,1.77
2022-08-09T05:20:14.847Z,1.65
2022-08-09T05:23:55.452Z,1.80
2022-08-09T05:25:32.613Z,2.22
2022-08-09T05:28:00.687Z,1.85
2022-08-09T05:30:31.167Z,1.95
2022-08-09T05:33:00.846Z,2.10
2022-08-09T05:35:29.949Z,1.73
2022-08-09T05:37:59.957Z,1.80
2022-08-09T05:40:29.823Z,1.80
2022-08-09T05:42:58.101Z,1.90
2022-08-09T05:45:26.288Z,1.77
2022-08-09T05:48:14.101Z,1.60
2022-08-09T05:50:57.112Z,2.30
2022-08-09T05:53:33.965Z,2.83
2022-08-09T05:56:03.343Z,2.20
2022-08-09T05:58:31.125Z,2.35
2022-08-09T06:00:59.653Z,2.13
2022-08-09T06:03:28.053Z,1.70
2022-08-09T06:06:12.261Z,2.20
2022-08-09T06:08:40.210Z,2.08
2022-08-09T06:11:17.609Z,1.67
2022-08-09T06:13:47.507Z,2.03
2022-08-09T06:16:16.309Z,2.00
2022-08-09T06:18:44.931Z,1.92
2022-08-09T06:21:12.983Z,2.10
2022-08-09T06:23:58.724Z,1.50
2022-08-09T06:26:31.478Z,1.83
2022-08-09T06:29:04.811Z,2.00
2022-08-09T06:31:40.050Z,1.95
2022-08-09T06:34:23.394Z,2.08
2022-08-09T06:36:59.407Z,1.90
2022-08-09T06:39:48.149Z,2.15
2022-08-09T06:42:24.848Z,1.98
2022-08-09T06:45:00.211Z,1.77
2022-08-09T06:47:39.805Z,1.88
2022-08-09T06:50:15.003Z,1.95
2022-08-09T06:52:48.555Z,1.70
2022-08-09T06:55:18.755Z,2.15
2022-08-09T06:58:03.526Z,1.77
2022-08-09T07:00:55.053Z,1.90
2022-08-09T07:03:28.556Z,1.77
2022-08-09T07:06:03.881Z,1.63
2022-08-09T07:08:34.759Z,1.92
2022-08-09T07:11:06.873Z,1.90
2022-08-09T07:13:45.112Z,1.88
2022-08-09T07:16:41.317Z,1.80
2022-08-09T07:19:15.742Z,1.70
2022-08-09T07:21:57.899Z,2.20
2022-08-09T07:24:39.803Z,1.88
2022-08-09T07:27:33.145Z,2.22
2022-08-09T07:30:02.257Z,2.15
2022-08-09T07:32:32.303Z,1.80
2022-08-09T07:35:10.209Z,1.85
2022-08-09T07:37:42.778Z,2.15
2022-08-09T07:40:16.715Z,1.98
2022-08-09T07:42:55.960Z,2.70
2022-08-09T07:45:39.489Z,2.20
2022-08-09T07:48:29.449Z,2.30
2022-08-09T07:51:09.601Z,2.33
2022-08-09T07:54:05.566Z,2.08
2022-08-09T07:56:39.007Z,2.08
2022-08-09T07:59:34.617Z,2.58
2022-08-09T08:02:09.365Z,2.20
2022-08-09T08:04:39.246Z,2.35
2022-08-09T08:07:21.558Z,2.10
2022-08-09T08:10:07.938Z,1.92
2022-08-09T08:12:43.791Z,2.38
2022-08-09T08:15:14.493Z,2.50
2022-08-09T08:17:53.115Z,2.30
2022-08-09T08:20:29.137Z,2.30
2022-08-09T08:23:03.388Z,2.53
2022-08-09T08:25:44.086Z,2.60
2022-08-09T08:28:15.078Z,2.72
2022-08-09T08:30:44.382Z,2.40
2022-08-09T08:33:22.898Z,2.75
2022-08-09T08:35:59.343Z,2.20
2022-08-09T08:38:29.516Z,2.30
2022-08-09T08:41:01.737Z,2.55
2022-08-09T08:43:34.248Z,2.35
2022-08-09T08:46:31.657Z,2.55
2022-08-09T08:48:56.091Z,2.42
2022-08-09T08:51:27.220Z,2.60
2022-08-09T08:54:20.491Z,2.78
2022-08-09T08:56:57.979Z,2.67
2022-08-09T08:59:28.095Z,2.80
2022-08-09T09:02:31.924Z,2.65
2022-08-09T09:05:02.951Z,2.75
2022-08-09T09:07:36.970Z,3.00
2022-08-09T09:10:12.901Z,2.63
2022-08-09T09:12:42.449Z,3.10
2022-08-09T09:15:12.255Z,2.67
2022-08-09T09:17:56.619Z,2.67
2022-08-09T09:20:25.827Z,2.80
2022-08-09T09:23:01.767Z,2.85
2022-08-09T09:32:04.031Z,3.22
2022-08-09T09:34:14.699Z,2.65
2022-08-09T09:36:52.800Z,2.40
2022-08-09T09:39:25.739Z,2.58
2022-08-09T09:42:27.881Z,2.78
2022-08-09T09:45:01.375Z,3.13
2022-08-09T09:47:32.468Z,3.25
2022-08-09T09:50:13.781Z,3.05
2022-08-09T09:52:55.828Z,2.60
2022-08-09T09:55:31.927Z,3.25
2022-08-09T09:58:16.188Z,3.15
2022-08-09T10:01:00.049Z,3.13
2022-08-09T10:03:44.801Z,2.97
2022-08-09T10:06:42.704Z,2.65
2022-08-09T10:09:22.357Z,2.80
2022-08-09T10:12:14.436Z,2.53
2022-08-09T10:14:51.640Z,2.92
2022-08-09T10:17:40.340Z,3.30
2022-08-09T10:20:27.769Z,2.80
2022-08-09T10:23:20.271Z,2.63
2022-08-09T10:26:06.727Z,2.78
2022-08-09T10:28:40.341Z,3.70
2022-08-09T10:34:08.362Z,2.60
2022-08-09T10:36:54.489Z,2.40
2022-08-09T10:39:28.306Z,2.55
2022-08-09T10:41:56.992Z,2.78
2022-08-09T10:44:30.537Z,2.38
2022-08-09T10:48:19.266Z,2.90
2022-08-09T10:50:21.097Z,2.83
2022-08-09T10:53:54.162Z,2.20
2022-08-09T10:56:36.277Z,2.38
2022-08-09T10:59:30.757Z,2.70
2022-08-09T11:03:11.319Z,2.50
2022-08-09T11:05:24.812Z,3.03
2022-08-09T11:07:59.395Z,3.13
2022-08-09T11:10:47.035Z,2.00
2022-08-09T11:13:49.093Z,2.80
2022-08-09T11:16:33.677Z,2.85
2022-08-09T11:19:07.970Z,2.28
2022-08-09T11:22:05.542Z,2.72
2022-08-09T11:25:08.382Z,2.92
2022-08-09T11:27:52.873Z,3.60
2022-08-09T11:30:32.600Z,2.67
2022-08-09T11:33:05.973Z,3.00
2022-08-09T11:35:56.964Z,3.45
2022-08-09T11:38:34.060Z,2.38
2022-08-09T11:41:12.997Z,2.95
2022-08-09T11:43:49.124Z,2.95
2022-08-09T11:46:26.834Z,3.10
2022-08-09T11:49:05.145Z,2.88
2022-08-09T11:53:03.131Z,2.55
2022-08-09T11:55:52.369Z,2.78
2022-08-09T11:58:30.394Z,5.50
2022-08-09T12:01:15.133Z,6.00
2022-08-09T12:03:55.405Z,5.38
2022-08-09T12:06:32.807Z,4.97
2022-08-09T12:09:17.644Z,5.18
2022-08-09T12:12:03.446Z,5.38
2022-08-09T12:14:40.789Z,4.25
2022-08-09T12:17:34.065Z,4.25
2022-08-09T12:20:16.216Z,4.82
2022-08-09T12:22:50.222Z,4.88
2022-08-09T12:25:31.991Z,4.18
2022-08-09T12:29:11.661Z,3.55
2022-08-09T12:32:01.817Z,3.92
2022-08-09T12:34:37.917Z,4.10
2022-08-09T12:37:24.243Z,3.60
2022-08-09T12:40:05.587Z,3.67
2022-08-09T12:42:34.571Z,4.07
2022-08-09T12:45:07.019Z,3.28
2022-08-09T12:47:52.945Z,4.72
2022-08-09T12:50:24.901Z,3.47
2022-08-09T12:53:18.066Z,3.50
2022-08-09T12:56:14.329Z,3.78
2022-08-09T12:58:29.662Z,2.88
2022-08-09T13:00:58.304Z,4.00
2022-08-09T13:03:57.125Z,3.22
2022-08-09T13:06:35.417Z,3.40
2022-08-09T13:09:13.262Z,2.95
2022-08-09T13:11:43.851Z,3.70
2022-08-09T13:14:43.717Z,3.17
2022-08-09T13:17:16.155Z,3.05
2022-08-09T13:20:07.170Z,2.83
2022-08-09T13:23:05.415Z,3.80
2022-08-09T13:25:42.887Z,3.53
2022-08-09T13:28:34.517Z,3.33
2022-08-09T13:32:13.423Z,3.38
2022-08-09T13:33:57.314Z,3.33
2022-08-09T13:36:40.887Z,2.92
2022-08-09T13:41:22.392Z,3.13
2022-08-09T13:42:11.995Z,3.40
2022-08-09T13:44:42.876Z,2.50
2022-08-09T13:47:31.245Z,2.97
2022-08-09T13:50:08.690Z,3.08
2022-08-09T13:52:41.934Z,2.80
2022-08-09T13:55:13.793Z,2.75
2022-08-09T13:57:55.904Z,2.80
2022-08-09T14:00:28.746Z,2.78
2022-08-09T14:03:16.512Z,2.67
2022-08-09T14:05:59.080Z,3.28
2022-08-09T14:08:31.367Z,2.60
2022-08-09T14:11:00.468Z,2.75
2022-08-09T14:14:24.515Z,3.10
2022-08-09T14:16:28.315Z,2.50
2022-08-09T14:18:59.515Z,2.55
2022-08-09T14:21:29.435Z,2.65
2022-08-09T14:24:01.334Z,3.20
2022-08-09T14:26:38.662Z,2.78
2022-08-09T14:30:15.029Z,2.25
2022-08-09T14:31:57.643Z,2.53
2022-08-09T14:34:32.748Z,2.72
2022-08-09T14:37:02.567Z,2.80
2022-08-09T14:39:40.340Z,2.60
2022-08-09T14:42:32.066Z,2.42
2022-08-09T14:45:14.826Z,2.67
2022-08-09T14:47:57.573Z,2.75
2022-08-09T14:50:37.398Z,2.42
2022-08-09T14:53:11.335Z,2.70
2022-08-09T14:55:47.880Z,2.60
2022-08-09T14:58:19.090Z,2.78
2022-08-09T15:00:48.545Z,2.92
2022-08-09T15:03:20.405Z,2.65
2022-08-09T15:05:50.242Z,3.00
2022-08-09T15:08:24.974Z,2.60
2022-08-09T15:11:00.380Z,3.13
2022-08-09T15:13:55.882Z,2.63
2022-08-09T15:16:19.969Z,2.42
2022-08-09T15:18:49.147Z,2.83
2022-08-09T15:21:55.400Z,3.00
2022-08-09T15:24:12.757Z,2.67
2022-08-09T15:26:45.855Z,2.60
2022-08-09T15:30:48.507Z,2.63
2022-08-09T15:32:04.067Z,2.38
2022-08-09T15:34:35.350Z,2.95
2022-08-09T15:37:24.359Z,2.38
2022-08-09T15:40:12.447Z,2.25
2022-08-09T15:42:43.176Z,2.40
2022-08-09T15:45:13.896Z,2.45
2022-08-09T15:47:52.335Z,2.22
2022-08-09T15:50:30.499Z,2.25
2022-08-09T15:53:06.269Z,2.03
2022-08-09T15:56:04.273Z,2.22
2022-08-09T15:58:26.877Z,2.17
2022-08-09T16:00:56.791Z,2.30
2022-08-09T16:03:29.674Z,2.00
2022-08-09T16:06:07.603Z,2.28
2022-08-09T16:08:56.282Z,2.47
2022-08-09T16:11:27.310Z,2.00
2022-08-09T16:14:04.969Z,1.90
2022-08-09T16:16:37.197Z,3.00
2022-08-09T16:19:14.690Z,2.40
2022-08-09T16:21:48.718Z,2.58
2022-08-09T16:24:32.726Z,2.50
2022-08-09T16:27:02.458Z,2.72
2022-08-09T16:29:36.888Z,2.45
2022-08-09T16:32:18.924Z,2.25
2022-08-09T16:34:56.671Z,2.20
2022-08-09T16:37:53.084Z,2.10
2022-08-09T16:40:20.460Z,1.95
2022-08-09T16:42:49.177Z,2.33
2022-08-09T16:45:19.856Z,1.73
2022-08-09T16:48:42.959Z,1.92
2022-08-09T16:50:38.608Z,2.10
2022-08-09T16:53:06.902Z,2.20
2022-08-09T16:55:58.697Z,1.92
2022-08-09T16:58:25.500Z,2.03
2022-08-09T17:00:54.899Z,2.28
2022-08-09T17:03:24.185Z,2.08
2022-08-09T17:06:07.951Z,1.70
2022-08-09T17:08:43.947Z,1.77
2022-08-09T17:11:32.933Z,1.80
2022-08-09T17:17:02.578Z,1.73
2022-08-09T17:20:04.947Z,1.63
2022-08-09T17:22:30.919Z,1.75
2022-08-09T17:25:03.454Z,1.52
2022-08-09T17:27:38.187Z,1.25
2022-08-09T17:30:14.235Z,1.45
2022-08-09T17:32:44.345Z,1.65
2022-08-09T17:35:14.661Z,2.00
2022-08-09T17:38:12.085Z,1.10
2022-08-09T17:40:33.496Z,1.48
2022-08-09T17:43:33.165Z,1.70
2022-08-09T17:46:03.231Z,1.48
2022-08-09T17:48:33.986Z,1.42
2022-08-09T17:51:09.773Z,1.30
2022-08-09T17:53:51.592Z,1.38
2022-08-09T17:56:27.458Z,1.20
2022-08-09T17:59:03.085Z,1.48
2022-08-09T18:01:40.658Z,1.20
2022-08-09T18:04:20.545Z,1.85
2022-08-09T18:06:53.970Z,1.30
2022-08-09T18:09:23.190Z,1.25
2022-08-09T18:12:14.607Z,1.45
2022-08-09T18:14:50.051Z,1.25
2022-08-09T18:17:27.198Z,1.40
2022-08-09T18:20:56.931Z,1.38
2022-08-09T18:22:59.824Z,1.30
2022-08-09T18:25:50.890Z,1.38
2022-08-09T18:30:35.791Z,1.60
2022-08-09T18:31:11.443Z,1.02
2022-08-09T18:33:40.294Z,1.20
2022-08-09T18:36:25.341Z,1.48
2022-08-09T18:39:00.731Z,1.60
2022-08-09T18:41:34.209Z,1.20
2022-08-09T18:44:13.091Z,1.02
2022-08-09T18:46:49.337Z,1.20
2022-08-09T18:49:20.934Z,1.63
2022-08-09T18:51:55.465Z,1.40
2022-08-09T18:54:29.535Z,1.40
2022-08-09T18:57:06.102Z,1.48
2022-08-09T18:59:48.700Z,1.45
2022-08-09T19:02:18.689Z,1.20
2022-08-09T19:05:04.197Z,1.30
2022-08-09T19:07:35.981Z,1.75
2022-08-09T19:10:13.945Z,1.90
2022-08-09T19:12:45.535Z,1.23
2022-08-09T19:15:24.789Z,1.10
2022-08-09T19:17:56.309Z,1.40
2022-08-09T19:20:24.968Z,1.52
2022-08-09T19:22:58.527Z,1.20
2022-08-09T19:26:01.267Z,1.13
2022-08-09T19:28:16.505Z,1.00
2022-08-09T19:30:45.445Z,1.30
2022-08-09T19:33:19.701Z,1.30
2022-08-09T19:35:58.442Z,1.20
2022-08-09T19:38:27.798Z,1.00
2022-08-09T19:40:59.769Z,1.20
2022-08-09T19:44:01.105Z,1.25
2022-08-09T19:46:17.460Z,1.20
2022-08-09T19:50:09.219Z,1.15
2022-08-09T19:51:55.885Z,1.45
2022-08-09T19:54:25.595Z,0.90
2022-08-09T19:56:54.550Z,1.10
2022-08-09T19:59:57.889Z,1.15
2022-08-09T20:02:17.282Z,1.08
2022-08-09T20:05:02.350Z,0.98
2022-08-09T20:07:59.598Z,1.00
2022-08-09T20:10:34.589Z,1.05
2022-08-09T20:13:06.909Z,1.00
2022-08-09T20:16:34.641Z,1.05
2022-08-09T20:18:27.569Z,1.30
2022-08-09T20:20:57.419Z,1.40
2022-08-09T20:23:38.903Z,1.27
2022-08-09T20:26:13.185Z,1.08
2022-08-09T20:28:47.946Z,1.05
2022-08-09T20:31:18.263Z,1.42
2022-08-09T20:33:46.860Z,1.30
2022-08-09T20:36:27.313Z,1.60
2022-08-09T20:39:28.603Z,1.30
2022-08-09T20:41:43.753Z,1.10
2022-08-09T20:44:12.089Z,1.33
2022-08-09T20:46:43.012Z,0.90
2022-08-09T20:49:16.045Z,1.20
2022-08-09T20:51:50.679Z,1.35
2022-08-09T20:54:19.566Z,1.10
2022-08-09T20:56:53.717Z,1.00
2022-08-09T20:59:50.233Z,0.98
2022-08-09T21:02:17.277Z,1.25
2022-08-09T21:05:50.981Z,1.45
2022-08-09T21:07:40.343Z,1.42
2022-08-09T21:10:12.303Z,1.70
2022-08-09T21:12:40.312Z,1.35
2022-08-09T21:15:12.744Z,1.75
2022-08-09T21:18:23.028Z,1.75
2022-08-09T21:20:29.905Z,1.85
2022-08-09T21:22:59.283Z,1.30
2022-08-09T21:25:55.815Z,0.98
2022-08-09T21:28:34.343Z,1.45
2022-08-09T21:31:18.114Z,1.70
2022-08-09T21:33:52.733Z,1.27
2022-08-09T21:36:23.706Z,1.10
2022-08-09T21:38:58.219Z,1.55
2022-08-09T21:42:05.610Z,1.25
2022-08-09T21:44:32.925Z,1.25
2022-08-09T21:47:08.851Z,1.42
2022-08-09T21:49:43.100Z,1.05
2022-08-09T21:52:16.329Z,1.50
2022-08-09T21:54:57.200Z,1.20
2022-08-09T21:57:58.572Z,1.00
2022-08-09T22:00:31.918Z,1.30
2022-08-09T22:03:04.461Z,1.25
2022-08-09T22:05:36.877Z,1.00
2022-08-09T22:08:13.771Z,1.00
2022-08-09T22:11:50.402Z,1.33
2022-08-09T22:13:36.643Z,1.60
2022-08-09T22:16:08.300Z,1.30
2022-08-09T22:18:38.329Z,0.95
2022-08-09T22:21:09.541Z,1.00
2022-08-09T22:23:59.025Z,1.17
2022-08-09T22:26:34.830Z,0.82
2022-08-09T22:29:09.216Z,1.30
2022-08-09T22:31:44.159Z,1.00
2022-08-09T22:34:15.598Z,1.50
2022-08-09T22:36:46.404Z,1.27
2022-08-09T22:39:47.015Z,0.93
2022-08-09T22:42:20.616Z,1.45
2022-08-09T22:45:00.233Z,0.90
2022-08-09T22:48:14.953Z,0.98
2022-08-09T22:50:26.330Z,1.23
2022-08-09T22:52:54.866Z,1.02
2022-08-09T22:55:39.742Z,0.80
2022-08-09T22:58:20.405Z,1.40
2022-08-09T23:01:02.380Z,0.95
2022-08-09T23:04:06.111Z,1.20
2022-08-09T23:06:32.621Z,1.50
2022-08-09T23:09:05.439Z,1.48
2022-08-09T23:11:33.517Z,1.10
2022-08-09T23:14:03.207Z,1.02
2022-08-09T23:16:34.249Z,0.93
2022-08-09T23:19:02.301Z,1.10
2022-08-09T23:21:33.604Z,1.02
2022-08-09T23:24:07.125Z,1.35
2022-08-09T23:26:42.345Z,1.13
2022-08-09T23:31:40.797Z,1.13
2022-08-09T23:34:09.139Z,1.17
2022-08-09T23:36:37.553Z,1.00
2022-08-09T23:39:06.624Z,1.02
2022-08-09T23:41:35.401Z,0.80
2022-08-09T23:44:03.778Z,0.90
2022-08-09T23:46:32.387Z,1.00
2022-08-09T23:49:04.993Z,0.80
2022-08-09T23:51:34.154Z,1.30
2022-08-09T23:54:03.387Z,1.05
2022-08-09T23:56:39.571Z,0.85
2022-08-09T23:59:24.101Z,1.00
